Time;durP1;ratioP1;P1;durP2;ratioP2;P2;SDS_P1;SDS_P2;PMS_P1;PMS_P2;Temp;Humidity;BMP_temperature;BMP_pressure;BME280_temperature;BME280_humidity;BME280_pressure;Samples;Min_cycle;Max_cycle;Signal;HPM_P1;HPM_P2
2022/09/26 00:01:31;;;;;;;14.82;4.45;;;21.50;99.90;;;;;;5014810;28;20040;-72
2022/09/26 00:04:03;;;;;;;14.38;4.22;;;21.60;99.90;;;;;;5015211;28;20108;-73
2022/09/26 00:06:30;;;;;;;10.00;4.47;;;21.60;99.90;;;;;;5006211;28;20384;-74
2022/09/26 00:08:58;;;;;;;11.05;5.35;;;21.60;99.90;;;;;;5036510;28;20062;-72
2022/09/26 00:11:29;;;;;;;13.38;4.72;;;21.60;99.90;;;;;;5028116;28;20056;-74
2022/09/26 00:14:00;;;;;;;8.65;4.63;;;21.60;99.90;;;;;;5050024;28;20060;-72
2022/09/26 00:16:28;;;;;;;13.25;5.05;;;21.60;99.90;;;;;;5067899;28;20505;-73
2022/09/26 00:18:57;;;;;;;12.55;4.95;;;21.60;99.90;;;;;;5035516;28;20053;-72
2022/09/26 00:21:26;;;;;;;7.78;4.55;;;21.70;99.90;;;;;;5052267;28;20044;-73
2022/09/26 00:23:55;;;;;;;10.45;4.80;;;21.70;99.90;;;;;;5053475;28;20049;-76
2022/09/26 00:26:25;;;;;;;7.88;4.13;;;21.70;99.90;;;;;;5049328;28;20394;-72
2022/09/26 00:28:53;;;;;;;13.90;4.80;;;21.70;99.90;;;;;;5000137;28;20463;-73
2022/09/26 00:31:30;;;;;;;11.95;5.72;;;21.80;99.90;;;;;;5039284;28;20084;-73
2022/09/26 00:33:58;;;;;;;8.40;4.45;;;21.80;99.90;;;;;;5019842;28;20040;-73
2022/09/26 00:36:27;;;;;;;14.73;6.13;;;21.80;99.90;;;;;;5052561;28;20060;-72
2022/09/26 00:39:03;;;;;;;8.63;4.90;;;21.80;99.90;;;;;;5036359;28;20048;-76
2022/09/26 00:41:31;;;;;;;12.32;5.38;;;21.80;99.90;;;;;;5044572;28;20040;-72
2022/09/26 00:43:59;;;;;;;11.05;5.18;;;21.80;99.90;;;;;;5032477;28;20068;-73
2022/09/26 00:46:42;;;;;;;9.57;4.85;;;21.70;99.90;;;;;;5023396;28;20151;-73
2022/09/26 00:49:27;;;;;;;10.95;4.35;;;21.70;99.90;;;;;;5069409;28;20055;-73
2022/09/26 00:52:10;;;;;;;10.82;4.85;;;21.70;99.90;;;;;;5052267;28;20491;-72
2022/09/26 00:54:41;;;;;;;10.18;4.53;;;21.70;99.90;;;;;;5070067;28;20142;-78
2022/09/26 00:57:14;;;;;;;8.73;4.13;;;21.70;99.90;;;;;;5019095;28;20049;-74
2022/09/26 00:59:48;;;;;;;14.60;4.65;;;21.70;99.90;;;;;;5069719;28;20570;-72
2022/09/26 01:02:16;;;;;;;12.02;4.70;;;21.70;99.90;;;;;;5030170;28;20139;-75
2022/09/26 01:04:46;;;;;;;9.85;5.45;;;21.70;99.90;;;;;;5051438;28;20164;-73
2022/09/26 01:07:17;;;;;;;9.85;4.18;;;21.70;99.90;;;;;;5051703;28;20044;-72
2022/09/26 01:09:46;;;;;;;18.23;5.60;;;21.60;99.90;;;;;;5067996;28;20712;-72
2022/09/26 01:12:16;;;;;;;11.15;3.90;;;21.60;99.90;;;;;;5031131;28;20207;-72
2022/09/26 01:14:45;;;;;;;6.22;4.10;;;21.60;99.90;;;;;;5030106;28;20144;-74
2022/09/26 01:17:14;;;;;;;9.90;3.83;;;21.60;99.90;;;;;;5038909;28;20037;-73
2022/09/26 01:19:48;;;;;;;7.57;4.53;;;21.50;99.90;;;;;;5029394;28;20147;-77
2022/09/26 01:22:36;;;;;;;11.95;4.18;;;21.60;99.90;;;;;;5049032;28;20081;-75
2022/09/26 01:25:28;;;;;;;25.45;5.90;;;21.60;99.90;;;;;;5016698;28;20055;-73
2022/09/26 01:28:19;;;;;;;11.00;5.13;;;21.60;99.90;;;;;;5000401;28;20144;-74
2022/09/26 01:31:05;;;;;;;14.70;4.82;;;21.60;99.90;;;;;;5032783;28;20122;-73
2022/09/26 01:33:53;;;;;;;11.18;4.82;;;21.60;99.90;;;;;;5016531;28;20170;-74
2022/09/26 01:36:41;;;;;;;8.95;3.95;;;21.50;99.90;;;;;;5015977;28;20067;-73
2022/09/26 01:39:31;;;;;;;10.05;4.10;;;21.50;99.90;;;;;;5032726;28;20158;-73
2022/09/26 01:42:27;;;;;;;13.68;5.25;;;21.50;99.90;;;;;;5032332;28;20041;-72
2022/09/26 01:45:08;;;;;;;10.48;5.28;;;21.50;99.90;;;;;;5020411;28;20582;-73
2022/09/26 01:48:08;;;;;;;10.82;3.53;;;21.50;99.90;;;;;;5036390;28;20076;-74
2022/09/26 01:50:44;;;;;;;8.90;4.20;;;21.50;99.90;;;;;;5036014;28;20037;-86
2022/09/26 01:53:20;;;;;;;8.67;3.67;;;21.60;99.90;;;;;;5035599;28;20048;-73
2022/09/26 01:55:57;;;;;;;9.95;4.78;;;21.60;99.90;;;;;;5036382;28;20071;-73
2022/09/26 01:58:31;;;;;;;10.73;4.40;;;21.60;99.90;;;;;;5003593;28;20045;-73
2022/09/26 02:01:03;;;;;;;7.70;3.80;;;21.50;99.90;;;;;;5036019;28;20563;-77
2022/09/26 02:03:38;;;;;;;8.52;3.72;;;21.60;99.90;;;;;;5003376;28;20475;-72
2022/09/26 02:06:11;;;;;;;7.43;3.67;;;21.50;99.90;;;;;;5052248;28;20067;-72
2022/09/26 02:08:44;;;;;;;8.60;4.10;;;21.60;99.90;;;;;;5019398;28;20057;-73
2022/09/26 02:11:18;;;;;;;9.27;4.22;;;21.60;99.90;;;;;;5036385;28;20048;-72
2022/09/26 02:13:50;;;;;;;6.75;3.42;;;21.60;99.90;;;;;;5020078;28;20061;-74
2022/09/26 02:16:34;;;;;;;8.98;4.25;;;21.60;99.90;;;;;;5036281;28;20040;-72
2022/09/26 02:19:11;;;;;;;10.05;4.60;;;21.60;99.90;;;;;;5035884;28;20069;-73
2022/09/26 02:21:41;;;;;;;6.45;3.38;;;21.70;99.90;;;;;;5020103;28;20091;-73
2022/09/26 02:24:10;;;;;;;11.30;4.38;;;21.70;99.90;;;;;;5019787;28;20036;-75
2022/09/26 02:26:38;;;;;;;7.60;4.07;;;21.70;99.90;;;;;;5035501;28;20048;-73
2022/09/26 02:29:06;;;;;;;9.27;3.60;;;21.70;99.90;;;;;;5035975;28;20120;-73
2022/09/26 02:31:40;;;;;;;8.57;3.83;;;21.70;99.90;;;;;;5019070;28;20052;-73
2022/09/26 02:34:08;;;;;;;14.27;3.80;;;21.70;99.90;;;;;;5019330;28;20049;-72
2022/09/26 02:36:37;;;;;;;16.98;4.85;;;21.70;99.90;;;;;;5002943;28;20068;-73
2022/09/26 02:39:05;;;;;;;7.13;3.50;;;21.80;99.90;;;;;;5002910;28;20041;-73
2022/09/26 02:41:56;;;;;;;11.75;3.22;;;21.80;99.90;;;;;;5025898;28;20060;-73
2022/09/26 02:44:45;;;;;;;5.82;2.78;;;21.80;99.90;;;;;;5035210;28;20487;-73
2022/09/26 02:47:34;;;;;;;12.63;4.07;;;21.70;99.90;;;;;;5035490;28;20037;-73
2022/09/26 02:50:12;;;;;;;10.90;4.18;;;21.80;99.90;;;;;;5019694;28;20048;-74
2022/09/26 02:53:01;;;;;;;8.75;3.83;;;21.80;99.90;;;;;;5035716;28;20047;-73
2022/09/26 02:56:08;;;;;;;12.63;4.75;;;21.80;99.90;;;;;;5020939;28;20455;-73
2022/09/26 02:59:05;;;;;;;10.20;4.10;;;21.80;99.90;;;;;;5036155;28;20049;-72
2022/09/26 03:02:16;;;;;;;7.57;4.10;;;21.80;99.90;;;;;;5019674;28;20053;-77
2022/09/26 03:05:12;;;;;;;12.55;4.05;;;21.80;99.90;;;;;;5035494;28;20114;-73
2022/09/26 03:07:58;;;;;;;8.15;4.07;;;21.80;99.90;;;;;;5053133;28;20760;-75
2022/09/26 03:10:29;;;;;;;8.70;4.15;;;21.80;99.90;;;;;;5035175;28;20041;-73
2022/09/26 03:13:13;;;;;;;10.10;4.47;;;21.70;99.90;;;;;;5018018;28;20064;-73
2022/09/26 03:15:44;;;;;;;14.93;4.90;;;21.70;99.90;;;;;;5002290;28;20045;-73
2022/09/26 03:18:18;;;;;;;8.45;3.67;;;21.70;99.90;;;;;;5035357;28;20041;-73
2022/09/26 03:20:46;;;;;;;7.75;3.97;;;21.70;99.90;;;;;;5001862;28;20048;-73
2022/09/26 03:23:14;;;;;;;10.32;3.60;;;21.70;99.90;;;;;;5050910;28;20495;-72
2022/09/26 03:25:43;;;;;;;12.07;4.43;;;21.70;99.90;;;;;;5002036;28;20036;-74
2022/09/26 03:28:14;;;;;;;8.35;3.42;;;21.70;99.90;;;;;;5035169;28;20037;-73
2022/09/26 03:30:41;;;;;;;15.30;5.72;;;21.70;99.90;;;;;;5034805;28;20118;-73
2022/09/26 03:33:41;;;;;;;10.27;4.18;;;21.70;99.90;;;;;;5011323;28;20060;-73
2022/09/26 03:36:09;;;;;;;7.80;3.85;;;21.70;99.90;;;;;;5051190;28;20040;-73
2022/09/26 03:38:37;;;;;;;7.78;4.28;;;21.60;99.90;;;;;;5018074;28;20084;-76
2022/09/26 03:41:17;;;;;;;10.85;3.33;;;21.60;99.90;;;;;;5049505;28;20395;-73
2022/09/26 03:44:24;;;;;;;9.63;4.00;;;21.50;99.90;;;;;;5067650;28;20101;-73
2022/09/26 03:47:12;;;;;;;11.52;4.32;;;21.60;99.90;;;;;;5040523;28;20044;-75
2022/09/26 03:49:42;;;;;;;15.00;4.72;;;21.60;99.90;;;;;;5054617;28;20156;-73
2022/09/26 03:52:11;;;;;;;10.02;4.95;;;21.60;99.90;;;;;;5037972;28;20147;-72
2022/09/26 03:54:39;;;;;;;13.13;5.25;;;21.60;99.90;;;;;;5037994;28;20182;-73
2022/09/26 03:57:09;;;;;;;12.55;5.20;;;21.60;99.90;;;;;;5054520;28;20487;-74
2022/09/26 03:59:41;;;;;;;10.35;4.13;;;21.50;99.90;;;;;;5037423;28;20424;-73
2022/09/26 04:02:11;;;;;;;9.85;3.80;;;21.50;99.90;;;;;;5038052;28;20051;-73
2022/09/26 04:04:43;;;;;;;11.88;5.38;;;21.50;99.90;;;;;;5021645;28;20063;-79
2022/09/26 04:07:10;;;;;;;10.70;3.90;;;21.50;99.90;;;;;;5053614;28;20037;-72
2022/09/26 04:09:38;;;;;;;12.38;4.82;;;21.50;99.90;;;;;;5037907;28;20157;-72
2022/09/26 04:12:06;;;;;;;14.13;4.47;;;21.50;99.90;;;;;;5038474;28;20086;-73
2022/09/26 04:14:37;;;;;;;9.45;3.72;;;21.60;99.90;;;;;;5054261;28;20260;-77
2022/09/26 04:17:04;;;;;;;9.70;3.55;;;21.60;99.90;;;;;;5072688;28;20043;-72
2022/09/26 04:19:37;;;;;;;10.18;4.10;;;21.60;99.90;;;;;;5022100;28;20048;-73
2022/09/26 04:22:07;;;;;;;15.38;4.55;;;21.60;99.90;;;;;;5021617;28;20049;-74
2022/09/26 04:24:35;;;;;;;13.57;4.15;;;21.60;99.90;;;;;;5053746;28;20100;-76
2022/09/26 04:27:03;;;;;;;8.85;3.22;;;21.70;99.90;;;;;;5037007;28;20052;-73
2022/09/26 04:29:31;;;;;;;7.18;4.05;;;21.60;99.90;;;;;;5053367;28;20809;-72
2022/09/26 04:32:31;;;;;;;10.80;3.53;;;21.70;99.90;;;;;;5009177;28;20048;-74
2022/09/26 04:35:17;;;;;;;10.10;3.78;;;21.70;99.90;;;;;;5063325;28;20048;-74
2022/09/26 04:37:46;;;;;;;6.18;3.50;;;21.70;99.90;;;;;;5033033;28;20129;-75
2022/09/26 04:40:14;;;;;;;8.35;3.53;;;21.70;99.90;;;;;;5025649;28;20414;-78
2022/09/26 04:42:53;;;;;;;10.32;3.63;;;21.70;99.90;;;;;;5027037;28;20156;-73
2022/09/26 04:45:20;;;;;;;8.88;3.47;;;21.70;99.90;;;;;;5042892;28;20055;-73
2022/09/26 04:47:48;;;;;;;8.43;4.72;;;21.80;99.90;;;;;;5044785;28;20041;-74
2022/09/26 04:50:25;;;;;;;7.88;4.22;;;21.80;99.90;;;;;;5044126;28;20045;-73
2022/09/26 04:53:07;;;;;;;17.42;4.50;;;21.80;99.90;;;;;;5015967;28;20138;-73
2022/09/26 04:55:46;;;;;;;6.93;4.25;;;21.80;99.90;;;;;;5028090;28;20056;-74
2022/09/26 04:58:15;;;;;;;9.07;3.33;;;21.80;99.90;;;;;;5016274;28;20052;-74
2022/09/26 05:00:46;;;;;;;10.18;3.72;;;21.90;99.90;;;;;;5028871;28;20195;-74
2022/09/26 05:03:19;;;;;;;12.70;4.07;;;21.90;99.90;;;;;;5001125;28;20067;-74
2022/09/26 05:05:48;;;;;;;13.32;3.92;;;21.90;99.90;;;;;;5016797;28;20605;-73
2022/09/26 05:08:16;;;;;;;11.82;4.60;;;21.90;99.90;;;;;;5032661;28;20064;-73
2022/09/26 05:10:50;;;;;;;8.93;4.00;;;21.90;99.90;;;;;;5032490;28;20143;-74
2022/09/26 05:13:18;;;;;;;12.23;4.88;;;22.00;99.90;;;;;;4996484;28;20460;-75
2022/09/26 05:15:48;;;;;;;13.38;6.25;;;22.00;99.90;;;;;;4997362;28;20084;-73
2022/09/26 05:18:16;;;;;;;11.40;4.20;;;22.00;99.90;;;;;;5016255;28;20468;-73
2022/09/26 05:20:47;;;;;;;6.35;3.40;;;22.00;99.90;;;;;;5032784;28;20037;-79
2022/09/26 05:26:18;;;;;;;10.38;4.07;;;22.00;99.90;;;;;;5001266;28;20091;-73
2022/09/26 05:26:29;;;;;;;14.07;3.60;;;22.00;99.90;;;;;;5016789;28;20040;-74
2022/09/26 05:29:03;;;;;;;7.80;4.28;;;22.00;99.90;;;;;;5017013;28;20069;-74
2022/09/26 05:31:43;;;;;;;14.90;4.65;;;22.00;99.90;;;;;;5018948;28;20130;-74
2022/09/26 05:34:12;;;;;;;9.93;4.38;;;22.10;99.90;;;;;;5033375;28;20488;-79
2022/09/26 05:36:43;;;;;;;9.05;3.88;;;22.00;99.90;;;;;;5033318;28;20136;-73
2022/09/26 05:41:58;;;;;;;6.90;4.43;;;22.10;99.90;;;;;;5032882;28;20041;-77
2022/09/26 05:44:27;;;;;;;8.68;3.85;;;22.10;99.90;;;;;;5014727;28;20045;-75
2022/09/26 05:46:56;;;;;;;9.07;5.30;;;22.10;99.90;;;;;;5016817;28;20059;-73
2022/09/26 05:49:25;;;;;;;12.35;5.20;;;22.10;99.90;;;;;;5017261;28;20538;-76
2022/09/26 05:51:53;;;;;;;11.23;5.35;;;22.00;99.90;;;;;;5015737;28;20373;-74
2022/09/26 05:54:21;;;;;;;8.70;4.55;;;22.10;99.90;;;;;;5033216;28;20037;-73
2022/09/26 05:56:50;;;;;;;10.15;5.90;;;22.00;99.90;;;;;;5032895;28;20056;-74
2022/09/26 05:59:41;;;;;;;12.10;4.95;;;22.00;99.90;;;;;;5029278;28;20053;-74
2022/09/26 06:02:24;;;;;;;10.23;4.45;;;22.10;99.90;;;;;;5033225;28;20091;-74
2022/09/26 06:05:11;;;;;;;9.48;4.43;;;22.00;99.90;;;;;;5032297;28;20049;-74
2022/09/26 06:07:39;;;;;;;7.55;4.97;;;22.00;99.90;;;;;;5050065;28;20150;-74
2022/09/26 06:10:15;;;;;;;5.32;3.50;;;21.90;99.90;;;;;;5033127;28;20499;-73
2022/09/26 06:12:52;;;;;;;14.13;5.78;;;21.80;99.90;;;;;;5017509;28;20053;-73
2022/09/26 06:15:20;;;;;;;13.13;4.35;;;21.80;99.90;;;;;;5000396;28;20055;-75
2022/09/26 06:17:47;;;;;;;13.73;5.38;;;21.80;99.90;;;;;;5039447;28;20089;-73
2022/09/26 06:20:16;;;;;;;15.90;5.05;;;21.70;99.90;;;;;;5035833;28;20045;-76
2022/09/26 06:22:43;;;;;;;12.45;5.05;;;21.70;99.90;;;;;;5036200;28;20041;-73
2022/09/26 06:25:12;;;;;;;12.35;4.95;;;21.60;99.90;;;;;;5036188;28;20055;-73
2022/09/26 06:27:41;;;;;;;10.05;6.13;;;21.60;99.90;;;;;;5036001;28;20064;-73
2022/09/26 06:30:09;;;;;;;8.70;4.60;;;21.60;99.90;;;;;;5052413;28;20091;-73
2022/09/26 06:32:40;;;;;;;11.68;5.60;;;21.60;99.90;;;;;;5035925;28;20052;-74
2022/09/26 06:35:34;;;;;;;8.68;5.15;;;21.70;99.90;;;;;;5052582;28;20141;-73
2022/09/26 06:38:28;;;;;;;7.78;3.95;;;21.70;99.90;;;;;;5037682;28;20060;-73
2022/09/26 06:40:55;;;;;;;12.23;4.20;;;21.70;99.90;;;;;;5035475;28;20368;-74
2022/09/26 06:43:23;;;;;;;7.85;4.15;;;21.70;99.90;;;;;;5051922;28;20095;-73
2022/09/26 06:46:10;;;;;;;;;;;21.80;99.90;;;;;;5053679;28;20040;-74
2022/09/26 06:49:07;;;;;;;9.90;5.17;;;21.80;99.90;;;;;;5037728;28;20448;-74
2022/09/26 06:51:47;;;;;;;8.43;3.92;;;21.90;99.90;;;;;;5052491;28;20300;-74
2022/09/26 06:54:16;;;;;;;13.45;5.53;;;21.90;99.90;;;;;;5019631;28;20533;-73
2022/09/26 06:56:44;;;;;;;14.55;5.78;;;22.00;99.90;;;;;;5052086;28;20069;-75
2022/09/26 06:59:11;;;;;;;12.55;3.92;;;22.00;99.90;;;;;;5053106;28;20043;-73
2022/09/26 07:01:48;;;;;;;11.68;3.60;;;22.00;99.90;;;;;;5036263;28;20521;-73
2022/09/26 07:04:39;;;;;;;13.55;4.93;;;22.10;99.90;;;;;;5034331;28;20157;-74
2022/09/26 07:07:18;;;;;;;8.20;4.13;;;22.10;99.90;;;;;;5051501;28;20044;-74
2022/09/26 07:09:46;;;;;;;13.10;4.53;;;22.20;99.90;;;;;;5035347;28;20447;-75
2022/09/26 07:12:36;;;;;;;10.18;4.68;;;22.20;99.90;;;;;;5035451;28;20106;-75
2022/09/26 07:15:04;;;;;;;17.65;6.22;;;22.30;99.90;;;;;;5037650;28;20064;-74
2022/09/26 07:17:32;;;;;;;27.65;4.63;;;22.40;99.90;;;;;;5054912;28;20551;-75
2022/09/26 07:20:03;;;;;;;6.55;4.07;;;22.50;99.90;;;;;;5054922;28;20094;-73
2022/09/26 07:23:08;;;;;;;6.75;4.15;;;22.60;99.90;;;;;;4993602;28;20483;-74
2022/09/26 07:25:38;;;;;;;10.32;4.85;;;22.70;99.90;;;;;;5031086;28;20056;-73
2022/09/26 07:28:08;;;;;;;12.30;4.90;;;22.70;99.90;;;;;;5053887;28;20459;-73
2022/09/26 07:30:57;;;;;;;8.73;4.60;;;22.60;99.90;;;;;;5070600;28;20052;-73
2022/09/26 07:33:43;;;;;;;8.85;4.70;;;22.60;99.90;;;;;;5057352;28;20071;-73
2022/09/26 07:36:11;;;;;;;13.32;4.53;;;22.60;99.90;;;;;;5054779;28;20047;-73
2022/09/26 07:38:42;;;;;;;13.13;4.78;;;22.70;99.90;;;;;;5037293;28;20360;-73
2022/09/26 07:41:10;;;;;;;8.75;4.75;;;22.90;99.90;;;;;;5019780;28;20520;-73
2022/09/26 07:43:39;;;;;;;7.53;4.47;;;23.10;99.90;;;;;;5037565;28;20103;-73
2022/09/26 07:51:59;;;;;;;10.00;3.63;;;23.20;99.90;;;;;;5071609;28;20490;-73
2022/09/26 07:54:42;;;;;;;7.55;5.15;;;23.10;99.90;;;;;;5053675;28;20490;-73
2022/09/26 07:57:37;;;;;;;15.00;4.13;;;23.10;99.90;;;;;;5041349;28;20068;-73
2022/09/26 08:00:21;;;;;;;13.40;5.03;;;23.10;99.90;;;;;;5053310;28;20048;-73
2022/09/26 08:03:17;;;;;;;7.55;4.22;;;23.10;99.90;;;;;;5034346;28;20437;-73
2022/09/26 08:05:44;;;;;;;8.13;4.65;;;23.10;99.90;;;;;;5024902;28;20159;-73
2022/09/26 08:08:13;;;;;;;8.85;4.15;;;23.20;99.90;;;;;;5052080;28;20045;-73
2022/09/26 08:11:16;;;;;;;7.78;3.85;;;23.30;99.90;;;;;;5036474;28;20121;-74
2022/09/26 08:13:54;;;;;;;9.02;3.72;;;23.40;99.90;;;;;;5034524;28;20419;-74
2022/09/26 08:16:40;;;;;;;7.63;3.97;;;23.40;99.90;;;;;;5039342;28;20135;-75
2022/09/26 08:19:16;;;;;;;9.13;3.90;;;23.50;99.90;;;;;;5046197;28;20033;-75
2022/09/26 08:21:46;;;;;;;10.00;3.55;;;23.50;99.90;;;;;;5049134;28;20052;-73
2022/09/26 08:24:14;;;;;;;11.77;4.03;;;23.40;99.90;;;;;;5033628;28;20098;-73
2022/09/26 08:27:02;;;;;;;5.47;3.47;;;23.40;99.90;;;;;;5039207;28;20108;-77
2022/09/26 08:29:33;;;;;;;9.35;4.43;;;23.30;99.90;;;;;;5052780;28;20858;-73
2022/09/26 08:32:02;;;;;;;15.07;4.20;;;23.40;99.90;;;;;;5020725;28;20516;-74
2022/09/26 08:34:33;;;;;;;10.75;3.50;;;23.40;99.90;;;;;;5033409;28;20523;-73
2022/09/26 08:37:24;;;;;;;10.40;4.93;;;23.50;99.90;;;;;;5052254;28;20049;-76
2022/09/26 08:40:11;;;;;;;10.77;3.92;;;23.50;99.90;;;;;;5055509;28;20073;-73
2022/09/26 08:43:28;;;;;;;9.90;3.65;;;23.60;99.90;;;;;;5046733;28;20174;-72
2022/09/26 08:49:28;;;;;;;14.52;4.25;;;23.80;99.90;;;;;;5052535;28;20044;-73
2022/09/26 08:52:00;;;;;;;8.63;3.53;;;24.00;99.90;;;;;;5052893;28;20036;-73
2022/09/26 08:54:38;;;;;;;5.15;3.10;;;23.90;99.90;;;;;;5048846;28;20047;-73
2022/09/26 08:57:16;;;;;;;13.30;3.20;;;23.90;99.90;;;;;;5032648;28;20056;-79
2022/09/26 08:59:47;;;;;;;7.40;3.35;;;23.80;99.90;;;;;;5017131;28;20040;-74
2022/09/26 09:02:38;;;;;;;8.90;3.40;;;23.80;99.90;;;;;;5027623;28;20048;-73
2022/09/26 09:05:38;;;;;;;7.55;3.40;;;23.80;99.90;;;;;;5045329;28;20051;-73
2022/09/26 09:08:35;;;;;;;6.07;3.08;;;23.90;99.90;;;;;;5034972;28;20447;-72
2022/09/26 09:11:53;;;;;;;9.43;4.13;;;23.90;99.90;;;;;;5022315;28;20048;-72
2022/09/26 09:14:45;;;;;;;8.25;3.22;;;23.70;99.90;;;;;;5051930;28;20471;-74
2022/09/26 09:17:38;;;;;;;7.97;3.42;;;23.50;99.90;;;;;;5040924;28;20080;-74
2022/09/26 09:20:40;;;;;;;11.00;3.63;;;23.40;99.90;;;;;;5016838;28;20044;-82
2022/09/26 09:23:55;;;;;;;10.40;4.53;;;23.20;99.90;;;;;;5027748;28;20052;-73
2022/09/26 09:26:52;;;;;;;8.70;3.42;;;23.00;99.90;;;;;;5040956;28;20116;-74
2022/09/26 09:29:49;;;;;;;12.85;3.58;;;23.00;99.90;;;;;;5021314;28;20174;-73
2022/09/26 09:32:57;;;;;;;13.60;4.22;;;22.90;99.90;;;;;;5068155;28;20130;-72
2022/09/26 09:35:48;;;;;;;7.60;3.58;;;23.00;99.90;;;;;;5027022;28;20127;-73
2022/09/26 09:38:44;;;;;;;13.38;4.47;;;23.00;99.90;;;;;;5034591;28;20097;-74
2022/09/26 09:41:53;;;;;;;8.98;3.88;;;23.00;99.90;;;;;;5018109;28;20049;-72
2022/09/26 09:44:24;;;;;;;8.45;4.13;;;23.10;99.90;;;;;;5031868;28;20049;-73
2022/09/26 09:46:52;;;;;;;7.00;3.00;;;23.00;99.90;;;;;;5040955;28;20037;-73
2022/09/26 09:49:24;;;;;;;7.55;3.50;;;23.10;99.90;;;;;;5048033;28;20486;-75
2022/09/26 09:52:04;;;;;;;9.02;3.45;;;23.10;99.90;;;;;;5045508;28;20405;-72
2022/09/26 09:54:41;;;;;;;7.47;3.20;;;23.00;99.90;;;;;;5028742;28;20414;-73
2022/09/26 09:57:46;;;;;;;8.88;3.90;;;23.10;99.90;;;;;;5015879;28;20060;-73
2022/09/26 10:00:23;;;;;;;9.60;3.45;;;23.10;99.90;;;;;;5030414;28;20103;-73
2022/09/26 10:03:10;;;;;;;8.93;3.83;;;23.10;99.90;;;;;;5035628;28;20128;-74
2022/09/26 10:05:41;;;;;;;8.43;4.63;;;23.10;99.90;;;;;;5034697;28;20047;-72
2022/09/26 10:08:27;;;;;;;6.90;3.60;;;23.10;99.90;;;;;;5035133;28;20506;-77
2022/09/26 10:11:40;;;;;;;6.10;3.60;;;23.10;99.90;;;;;;5064949;28;20793;-76
2022/09/26 10:14:39;;;;;;;6.18;2.70;;;23.10;99.90;;;;;;5045405;28;20068;-73
2022/09/26 10:17:09;;;;;;;13.25;4.70;;;23.00;99.90;;;;;;5052832;28;20130;-74
2022/09/26 10:19:48;;;;;;;11.35;3.60;;;23.00;99.90;;;;;;5029941;28;20136;-73
2022/09/26 10:22:27;;;;;;;7.65;3.85;;;22.90;99.90;;;;;;5002988;28;20064;-73
2022/09/26 10:25:04;;;;;;;8.95;3.80;;;23.00;99.90;;;;;;5035002;28;20045;-74
2022/09/26 10:27:39;;;;;;;8.43;4.22;;;22.90;99.90;;;;;;5033293;28;20041;-73
2022/09/26 10:30:17;;;;;;;7.88;4.80;;;22.80;99.90;;;;;;5019878;28;20117;-73
2022/09/26 10:32:52;;;;;;;13.82;5.18;;;22.70;99.90;;;;;;5018468;28;20060;-73
2022/09/26 10:35:47;;;;;;;8.82;3.50;;;22.60;99.90;;;;;;5024252;28;20464;-73
2022/09/26 10:38:20;;;;;;;11.05;3.58;;;22.50;99.90;;;;;;5050335;28;20094;-74
2022/09/26 10:41:04;;;;;;;;;;;22.40;99.90;;;;;;5018937;28;20468;-72
2022/09/26 10:43:36;;;;;;;8.35;3.65;;;22.40;99.90;;;;;;5027240;28;19924;-77
2022/09/26 10:46:18;;;;;;;5.90;3.35;;;22.40;99.90;;;;;;5049586;28;20049;-76
2022/09/26 10:49:06;;;;;;;5.32;2.67;;;22.40;99.90;;;;;;5052781;28;20045;-79
2022/09/26 10:52:17;;;;;;;8.55;4.38;;;22.30;99.90;;;;;;5034405;28;20053;-74
2022/09/26 10:54:56;;;;;;;7.57;4.68;;;22.20;99.90;;;;;;5026167;28;20117;-73
2022/09/26 10:57:44;;;;;;;7.57;3.80;;;22.10;99.90;;;;;;5035405;28;20056;-72
2022/09/26 11:00:20;;;;;;;10.07;4.90;;;22.10;99.90;;;;;;5037513;28;20090;-72
2022/09/26 11:02:51;;;;;;;7.38;4.30;;;22.00;99.90;;;;;;5019483;28;20048;-72
2022/09/26 11:08:14;;;;;;;14.43;4.32;;;21.90;99.90;;;;;;5021701;28;20068;-72
2022/09/26 11:11:20;;;;;;;10.75;4.05;;;21.90;99.90;;;;;;5055186;28;20078;-72
2022/09/26 11:15:26;;;;;;;;;;;;;;;;;;;;;
2022/09/26 11:17:52;;;;;;;12.80;5.13;;;21.90;99.90;;;;;;5024512;28;20061;-74
2022/09/26 11:20:44;;;;;;;10.52;4.85;;;21.80;99.90;;;;;;5038719;28;20060;-73
2022/09/26 11:23:39;;;;;;;9.25;4.47;;;21.70;99.90;;;;;;5038655;28;20352;-73
2022/09/26 11:26:17;;;;;;;13.98;5.10;;;21.60;99.90;;;;;;5038615;28;20087;-73
2022/09/26 11:28:54;;;;;;;13.55;6.63;;;21.60;99.90;;;;;;5020880;28;20139;-74
2022/09/26 11:31:39;;;;;;;8.05;5.68;;;21.50;99.90;;;;;;5036920;28;20071;-75
2022/09/26 11:34:30;;;;;;;13.20;5.75;;;21.50;99.90;;;;;;5040361;28;20489;-75
2022/09/26 11:37:16;;;;;;;9.40;5.57;;;21.40;99.90;;;;;;5037943;28;20059;-72
2022/09/26 11:40:02;;;;;;;12.30;5.75;;;21.50;99.90;;;;;;5055163;28;20563;-72
2022/09/26 11:42:58;;;;;;;9.05;6.10;;;21.50;99.90;;;;;;5038744;28;20040;-72
2022/09/26 11:45:41;;;;;;;12.00;5.68;;;21.50;99.90;;;;;;5054946;28;20048;-72
2022/09/26 11:48:49;;;;;;;12.38;6.05;;;21.60;99.90;;;;;;5047566;28;20787;-72
2022/09/26 11:52:22;;;;;;;16.48;6.82;;;21.60;99.90;;;;;;5026579;28;20075;-73
2022/09/26 11:55:17;;;;;;;10.57;5.43;;;21.60;99.90;;;;;;5031507;28;20074;-72
2022/09/26 11:58:03;;;;;;;10.10;5.60;;;21.60;99.90;;;;;;5072714;28;20045;-72
2022/09/26 12:00:36;;;;;;;10.80;4.68;;;21.60;99.90;;;;;;5054800;28;20090;-72
2022/09/26 12:03:23;;;;;;;10.13;5.32;;;21.50;99.90;;;;;;5054541;28;20048;-72
2022/09/26 12:06:44;;;;;;;9.40;6.05;;;21.60;99.90;;;;;;5054397;28;20147;-72
2022/09/26 12:09:36;;;;;;;17.30;6.13;;;21.60;99.90;;;;;;5037994;28;20437;-72
2022/09/26 12:12:19;;;;;;;11.38;4.80;;;21.60;99.90;;;;;;5054337;28;20097;-73
2022/09/26 12:15:22;;;;;;;12.45;5.88;;;21.70;99.90;;;;;;5053868;28;20368;-72
2022/09/26 12:17:53;;;;;;;11.40;4.78;;;21.70;99.90;;;;;;5017750;28;20047;-72
2022/09/26 12:21:14;;;;;;;8.95;5.50;;;21.70;99.90;;;;;;5034601;28;20052;-71
2022/09/26 12:23:48;;;;;;;14.43;6.45;;;21.60;99.90;;;;;;5026702;28;20199;-72
2022/09/26 12:26:25;;;;;;;7.63;5.43;;;21.60;99.90;;;;;;5033361;28;20048;-73
2022/09/26 12:29:11;;;;;;;7.45;4.82;;;21.60;99.90;;;;;;5034280;28;20514;-72
2022/09/26 12:31:56;;;;;;;15.93;5.82;;;21.60;99.90;;;;;;5051746;28;20186;-72
2022/09/26 12:35:06;;;;;;;17.08;7.35;;;21.50;99.90;;;;;;5037235;28;20413;-72
2022/09/26 12:37:48;;;;;;;18.83;7.18;;;21.50;99.90;;;;;;5034197;28;20382;-73
2022/09/26 12:40:28;;;;;;;13.02;6.50;;;21.60;99.90;;;;;;5011091;28;20056;-72
2022/09/26 12:43:12;;;;;;;15.45;6.30;;;21.60;99.90;;;;;;5039822;28;20200;-72
2022/09/26 12:45:57;;;;;;;11.30;6.10;;;21.50;99.90;;;;;;5066689;28;20176;-75
2022/09/26 12:48:37;;;;;;;14.18;7.25;;;21.50;99.90;;;;;;5048028;28;20041;-72
2022/09/26 12:51:38;;;;;;;10.40;4.90;;;21.50;99.90;;;;;;5050297;28;20084;-73
2022/09/26 12:54:31;;;;;;;9.75;5.35;;;21.50;99.90;;;;;;5065803;28;20098;-72
2022/09/26 12:57:03;;;;;;;20.58;7.05;;;21.50;99.90;;;;;;5053531;28;20487;-73
2022/09/26 12:59:55;;;;;;;10.38;5.60;;;21.50;99.90;;;;;;5045448;28;20048;-75
2022/09/26 13:02:54;;;;;;;15.02;6.13;;;21.50;99.90;;;;;;5025766;28;20152;-73
2022/09/26 13:05:59;;;;;;;13.68;7.10;;;21.50;99.90;;;;;;5041862;28;20044;-72
2022/09/26 13:08:52;;;;;;;9.30;5.10;;;21.50;99.90;;;;;;5051022;28;20044;-72
2022/09/26 13:11:47;;;;;;;8.80;5.30;;;21.40;99.90;;;;;;5039123;28;20045;-72
2022/09/26 13:14:38;;;;;;;17.65;6.68;;;21.40;99.90;;;;;;5043902;28;20119;-71
2022/09/26 13:17:27;;;;;;;13.85;6.65;;;21.40;99.90;;;;;;5036624;28;20155;-72
2022/09/26 13:20:23;;;;;;;14.02;6.25;;;21.40;99.90;;;;;;5036429;28;20044;-71
2022/09/26 13:22:56;;;;;;;12.55;5.78;;;21.40;99.90;;;;;;5051437;28;20041;-72
2022/09/26 13:25:31;;;;;;;11.82;7.13;;;21.40;99.90;;;;;;5034057;28;20041;-76
2022/09/26 13:28:33;;;;;;;11.67;5.80;;;21.40;99.90;;;;;;5036385;28;20132;-73
2022/09/26 13:31:17;;;;;;;17.10;6.93;;;21.30;99.90;;;;;;5053733;28;20286;-72
2022/09/26 13:34:02;;;;;;;8.13;6.32;;;21.30;99.90;;;;;;5037039;28;20118;-72
2022/09/26 13:36:32;;;;;;;12.20;6.13;;;21.30;99.90;;;;;;5053391;28;20123;-72
2022/09/26 13:39:20;;;;;;;15.25;6.70;;;21.30;99.90;;;;;;5056817;28;20040;-72
2022/09/26 13:42:06;;;;;;;12.50;5.82;;;21.40;99.90;;;;;;5041089;28;20422;-72
2022/09/26 13:44:56;;;;;;;14.32;6.55;;;21.40;99.90;;;;;;5074843;28;20051;-72
2022/09/26 13:47:30;;;;;;;15.45;6.55;;;21.40;99.90;;;;;;5056825;28;20041;-79
2022/09/26 13:50:04;;;;;;;19.30;6.68;;;21.40;99.90;;;;;;5057053;28;20064;-72
2022/09/26 13:52:39;;;;;;;12.93;6.28;;;21.40;99.90;;;;;;5040492;28;20052;-71
2022/09/26 13:55:18;;;;;;;13.00;7.32;;;21.50;99.90;;;;;;5040116;28;20406;-72
2022/09/26 13:57:50;;;;;;;24.13;6.50;;;21.40;99.90;;;;;;5056727;28;20089;-74
2022/09/26 14:00:24;;;;;;;13.07;6.38;;;21.50;99.90;;;;;;5074873;28;20045;-72
2022/09/26 14:03:14;;;;;;;16.25;7.93;;;21.50;99.90;;;;;;5056400;28;20822;-72
2022/09/26 14:05:42;;;;;;;16.45;6.53;;;21.50;99.90;;;;;;5040097;28;20064;-72